CheckWX is a tool to help pilots better visualize weather data.  It is not intended as a substitute for an official pre-flight weather briefing.

05:12:52 UTC

KCQW METAR
Cheraw Municipal / Lynch Bellinger Field Airport
Cheraw, South Carolina, USA
Current

18 mins ago

KCQW 240455Z AUTO 00000KT 8SM OVC004 07/06 A3008 RMK AO2
Observed
Feb-24 @ 04:55 UTC
Visibility
8 SM
Flight Rules
LIFR
Cloud Levels
  • Overcast at 400' AGL
Temperature
C / 45°F
Dewpoint
C / 43°F
Humidity
93%
Altimeter
30.08" Hg
Pressure
1018.62 hPa
Previous

38 mins ago

KCQW 240435Z AUTO 00000KT 10SM OVC005 07/06 A3008 RMK AO2
Observed
Feb-24 @ 04:35 UTC
Visibility
10 SM
Flight Rules
IFR
Cloud Levels
  • Overcast at 500' AGL
Temperature
C / 45°F
Dewpoint
C / 43°F
Humidity
93%
Altimeter
30.08" Hg
Pressure
1018.62 hPa
Previous

58 mins ago

KCQW 240415Z AUTO 00000KT 10SM OVC006 07/06 A3009 RMK AO2
Observed
Feb-24 @ 04:15 UTC
Visibility
10 SM
Flight Rules
IFR
Cloud Levels
  • Overcast at 600' AGL
Temperature
C / 45°F
Dewpoint
C / 43°F
Humidity
93%
Altimeter
30.09" Hg
Pressure
1018.92 hPa